createdAt,value
2023-05-06T00:26:40.937Z,50.875523
2023-05-06T00:27:40.922Z,50.875946
2023-05-06T00:28:40.901Z,50.875759
2023-05-06T00:29:40.884Z,50.875675
2023-05-06T00:30:40.897Z,50.875462
2023-05-06T00:31:40.945Z,50.875477
2023-05-06T00:32:40.939Z,50.875477
2023-05-06T00:33:40.852Z,50.875477
2023-05-06T00:34:40.857Z,50.875546
2023-05-06T00:35:40.832Z,50.875809
2023-05-06T00:36:40.834Z,50.875687
2023-05-06T00:37:40.809Z,50.875687
2023-05-06T00:38:40.804Z,50.875637
2023-05-06T00:39:40.772Z,50.875393
2023-05-06T00:40:40.807Z,50.875427
2023-05-06T00:41:40.777Z,50.875435
2023-05-06T00:42:40.768Z,50.875393
2023-05-06T00:43:40.754Z,50.875481
2023-05-06T00:44:40.746Z,50.875416
2023-05-06T00:45:40.809Z,50.875393
2023-05-06T00:46:40.735Z,50.875706
2023-05-06T00:47:40.734Z,50.875507
2023-05-06T00:48:40.696Z,50.875443
2023-05-06T00:49:40.681Z,50.875126
2023-05-06T00:50:40.720Z,50.875278
2023-05-06T00:51:40.663Z,50.875511
2023-05-06T00:52:40.680Z,50.875469
2023-05-06T00:53:40.648Z,50.875423
2023-05-06T00:54:40.641Z,50.875610
2023-05-06T00:55:41.644Z,50.875488
2023-05-06T00:56:40.642Z,50.875351
2023-05-06T00:57:40.615Z,50.875229
2023-05-06T00:58:40.602Z,50.875282
2023-05-06T00:59:40.590Z,50.875248
2023-05-06T01:00:40.589Z,50.875469
2023-05-06T01:01:40.636Z,50.875549
2023-05-06T01:02:46.830Z,50.875603
2023-05-06T01:03:42.781Z,50.875465
2023-05-06T01:04:40.592Z,50.875278
2023-05-06T01:05:40.539Z,50.875195
2023-05-06T01:06:40.526Z,50.875046
2023-05-06T01:07:40.519Z,50.875378
2023-05-06T01:08:40.531Z,50.875629
2023-05-06T01:09:40.505Z,50.875690
2023-05-06T01:10:40.509Z,50.875515
2023-05-06T01:11:40.496Z,50.875481
2023-05-06T01:12:40.554Z,50.875381
2023-05-06T01:13:40.462Z,50.875366
2023-05-06T01:14:40.446Z,50.875736
2023-05-06T01:15:40.451Z,50.875343
2023-05-06T01:16:40.466Z,50.875427
2023-05-06T01:17:40.472Z,50.875385
2023-05-06T01:18:40.446Z,50.875393
2023-05-06T01:19:40.417Z,50.875408
2023-05-06T01:20:40.405Z,50.875381
2023-05-06T01:21:40.408Z,50.875328
2023-05-06T01:22:40.390Z,50.875217
2023-05-06T01:23:40.403Z,50.875153
2023-05-06T01:24:40.395Z,50.875237
2023-05-06T01:25:40.364Z,50.875401
2023-05-06T01:26:40.364Z,50.875336
2023-05-06T01:27:40.348Z,50.875366
2023-05-06T01:28:40.360Z,50.875347
2023-05-06T01:29:40.333Z,50.875317
2023-05-06T01:30:40.294Z,50.875393
2023-05-06T01:31:40.376Z,50.875454
2023-05-06T01:32:40.360Z,50.875553
2023-05-06T01:33:40.314Z,50.875378
2023-05-06T01:34:40.274Z,50.875290
2023-05-06T01:35:40.323Z,50.875252
2023-05-06T01:36:40.261Z,50.875118
2023-05-06T01:37:40.249Z,50.875183
2023-05-06T01:38:40.222Z,50.875347
2023-05-06T01:39:40.215Z,50.875210
2023-05-06T01:40:40.231Z,50.875278
2023-05-06T01:41:40.215Z,50.875286
2023-05-06T01:42:40.199Z,50.875420
2023-05-06T01:43:40.190Z,50.875370
2023-05-06T01:44:40.158Z,50.875309
2023-05-06T01:45:40.155Z,50.875309
2023-05-06T01:46:40.258Z,50.875320
2023-05-06T01:47:40.175Z,50.875591
2023-05-06T01:48:40.115Z,50.875401
2023-05-06T01:49:40.148Z,50.875172
2023-05-06T01:50:40.133Z,50.875137
2023-05-06T01:51:40.105Z,50.875179
2023-05-06T01:52:40.102Z,50.875309
2023-05-06T01:53:40.097Z,50.875309
2023-05-06T01:54:40.114Z,50.875301
2023-05-06T01:55:40.098Z,50.875340
2023-05-06T01:56:40.062Z,50.875259
2023-05-06T01:57:40.059Z,50.875301
2023-05-06T01:58:40.049Z,50.875301
2023-05-06T01:59:40.049Z,50.875374
2023-05-06T02:00:40.055Z,50.875507
2023-05-06T02:01:40.035Z,50.875317
2023-05-06T02:02:40.053Z,50.875210
2023-05-06T02:03:40.053Z,50.875332
2023-05-06T02:04:39.959Z,50.875317
2023-05-06T02:05:39.982Z,50.875332
2023-05-06T02:06:39.919Z,50.875275
2023-05-06T02:07:39.946Z,50.875214
2023-05-06T02:08:39.973Z,50.875252
2023-05-06T02:09:39.963Z,50.875305
2023-05-06T02:10:39.967Z,50.875206
2023-05-06T02:11:39.927Z,50.875534
2023-05-06T02:12:39.965Z,50.875450
2023-05-06T02:13:39.884Z,50.875240
2023-05-06T02:14:39.891Z,50.875168
2023-05-06T02:15:39.862Z,50.875141
2023-05-06T02:16:39.934Z,50.875233
2023-05-06T02:17:40.899Z,50.875221
2023-05-06T02:18:39.847Z,50.875435
2023-05-06T02:19:39.860Z,50.875401
2023-05-06T02:20:39.849Z,50.875198
2023-05-06T02:21:39.863Z,50.875378
2023-05-06T02:22:39.786Z,50.875397
2023-05-06T02:23:39.818Z,50.875381
2023-05-06T02:24:39.805Z,50.875294
2023-05-06T02:25:39.782Z,50.875320
2023-05-06T02:26:39.804Z,50.875450
2023-05-06T02:27:39.776Z,50.875565
2023-05-06T02:28:39.779Z,50.875496
2023-05-06T02:29:39.758Z,50.875607
2023-05-06T02:30:39.766Z,50.875397
2023-05-06T02:31:39.924Z,50.875645
2023-05-06T02:32:39.765Z,50.875565
2023-05-06T02:33:39.722Z,50.875401
2023-05-06T02:34:39.703Z,50.875362
2023-05-06T02:35:39.660Z,50.875462
2023-05-06T02:36:39.645Z,50.875275
2023-05-06T02:37:39.717Z,50.875278
2023-05-06T02:38:39.662Z,50.875580
2023-05-06T02:39:39.618Z,50.875515
2023-05-06T02:40:39.641Z,50.875385
2023-05-06T02:41:39.642Z,50.875347
2023-05-06T02:42:39.692Z,50.875332
2023-05-06T02:43:39.626Z,50.875328
2023-05-06T02:44:39.583Z,50.875111
2023-05-06T02:45:39.617Z,50.875202
2023-05-06T02:46:39.590Z,50.875519
2023-05-06T02:47:39.561Z,50.875420
2023-05-06T02:48:39.533Z,50.875523
2023-05-06T02:49:39.494Z,50.875710
2023-05-06T02:50:39.502Z,50.875656
2023-05-06T02:51:39.514Z,50.875656
2023-05-06T02:52:39.506Z,50.875656
2023-05-06T02:53:39.676Z,50.875107
2023-05-06T02:54:40.473Z,50.875298
2023-05-06T02:55:39.450Z,50.875328
2023-05-06T02:56:39.470Z,50.875538
2023-05-06T02:57:39.445Z,50.875736
2023-05-06T02:58:39.446Z,50.875687
2023-05-06T02:59:39.428Z,50.875381
2023-05-06T03:00:39.418Z,50.875366
2023-05-06T03:01:39.549Z,50.875324
2023-05-06T03:02:39.404Z,50.875439
2023-05-06T03:03:39.388Z,50.875549
2023-05-06T03:04:39.387Z,50.875538
2023-05-06T03:05:39.376Z,50.875515
2023-05-06T03:06:39.356Z,50.875454
2023-05-06T03:07:39.376Z,50.875252
2023-05-06T03:08:39.326Z,50.875343
2023-05-06T03:09:39.342Z,50.874981
2023-05-06T03:10:39.319Z,50.874950
2023-05-06T03:11:39.311Z,50.875237
2023-05-06T03:12:39.321Z,50.875484
2023-05-06T03:13:39.289Z,50.875301
2023-05-06T03:14:39.270Z,50.875465
2023-05-06T03:15:39.266Z,50.875397
2023-05-06T03:16:39.333Z,50.875481
2023-05-06T03:17:39.296Z,50.875240
2023-05-06T03:18:39.225Z,50.875103
2023-05-06T03:19:39.222Z,50.875195
2023-05-06T03:20:39.226Z,50.875492
2023-05-06T03:21:39.235Z,50.875546
2023-05-06T03:22:39.210Z,50.875469
2023-05-06T03:23:39.210Z,50.875259
2023-05-06T03:24:39.191Z,50.875195
2023-05-06T03:25:39.383Z,50.875267
2023-05-06T03:26:39.180Z,50.875362
2023-05-06T03:27:39.157Z,50.875404
2023-05-06T03:28:39.147Z,50.875427
2023-05-06T03:29:39.180Z,50.875389
2023-05-06T03:30:39.119Z,50.875362
2023-05-06T03:31:39.178Z,50.875439
2023-05-06T03:32:39.149Z,50.875591
2023-05-06T03:33:39.098Z,50.875458
2023-05-06T03:34:39.132Z,50.875401
2023-05-06T03:35:39.077Z,50.875385
2023-05-06T03:36:39.059Z,50.875267
2023-05-06T03:37:39.066Z,50.875317
2023-05-06T03:38:39.063Z,50.875423
2023-05-06T03:39:39.092Z,50.875412
2023-05-06T03:40:39.039Z,50.875301
2023-05-06T03:41:39.084Z,50.875412
2023-05-06T03:42:39.015Z,50.875465
2023-05-06T03:43:39.006Z,50.875427
2023-05-06T03:44:39.005Z,50.875362
2023-05-06T03:45:38.977Z,50.875473
2023-05-06T03:46:39.048Z,50.875439
2023-05-06T03:47:39.043Z,50.875370
2023-05-06T03:48:38.970Z,50.875408
2023-05-06T03:49:38.955Z,50.875458
2023-05-06T03:50:38.940Z,50.875492
2023-05-06T03:51:38.925Z,50.875427
2023-05-06T03:52:38.951Z,50.875397
2023-05-06T03:53:38.914Z,50.875462
2023-05-06T03:54:38.890Z,50.875385
2023-05-06T03:55:38.902Z,50.875412
2023-05-06T03:56:38.873Z,50.875336
2023-05-06T03:57:38.907Z,50.875332
2023-05-06T03:58:38.856Z,50.875355
2023-05-06T03:59:38.846Z,50.875397
2023-05-06T04:00:38.845Z,50.875397
2023-05-06T04:01:38.855Z,50.875389
2023-05-06T04:02:38.995Z,50.875462
2023-05-06T04:03:38.886Z,50.875427
2023-05-06T04:04:38.799Z,50.875546
2023-05-06T04:05:38.779Z,50.875412
2023-05-06T04:06:38.776Z,50.875473
2023-05-06T04:07:38.788Z,50.875210
2023-05-06T04:08:38.760Z,50.875164
2023-05-06T04:09:38.745Z,50.875130
2023-05-06T04:10:38.756Z,50.875130
2023-05-06T04:11:38.742Z,50.872192
2023-05-06T04:12:38.772Z,50.872768
2023-05-06T04:13:38.769Z,50.874966
2023-05-06T04:14:38.702Z,50.883102
2023-05-06T04:15:38.690Z,50.890354
2023-05-06T04:16:38.798Z,50.890354
2023-05-06T04:17:38.713Z,50.890354
2023-05-06T04:18:38.657Z,50.890354
2023-05-06T04:19:38.633Z,50.875103
2023-05-06T04:20:38.630Z,50.875538
2023-05-06T04:21:38.657Z,50.875118
2023-05-06T04:22:38.607Z,50.875118
2023-05-06T04:23:38.607Z,50.875164
2023-05-06T04:24:38.610Z,50.874935
2023-05-06T04:25:38.607Z,50.875431
2023-05-06T04:26:38.583Z,50.876434
2023-05-06T04:27:38.567Z,50.876434
2023-05-06T04:28:38.564Z,50.876434
2023-05-06T04:29:38.695Z,50.877251
2023-05-06T04:30:38.559Z,50.878288
2023-05-06T04:31:38.608Z,50.877495
2023-05-06T04:32:38.567Z,50.876335
2023-05-06T04:33:38.528Z,50.876236
2023-05-06T04:34:38.548Z,50.875252
2023-05-06T04:35:38.532Z,50.874939
2023-05-06T04:36:40.588Z,50.875259
2023-05-06T04:37:38.516Z,50.875427
2023-05-06T04:38:38.521Z,50.875427
2023-05-06T04:39:38.516Z,50.875427
2023-05-06T04:40:38.483Z,50.875584
2023-05-06T04:41:38.460Z,50.875874
2023-05-06T04:42:38.437Z,50.875874
2023-05-06T04:43:38.461Z,50.875874
2023-05-06T04:44:38.519Z,50.875874
2023-05-06T04:45:38.507Z,50.875874
2023-05-06T04:46:38.415Z,50.875874
2023-05-06T04:47:38.448Z,50.875874
2023-05-06T04:48:38.380Z,50.875874
2023-05-06T04:49:38.383Z,50.875874
2023-05-06T04:50:38.367Z,50.875874
2023-05-06T04:51:38.374Z,50.875874
2023-05-06T04:52:38.377Z,50.875874
2023-05-06T04:53:38.330Z,50.875874
2023-05-06T04:54:38.333Z,50.875874
2023-05-06T04:55:38.329Z,50.875420
2023-05-06T04:56:38.331Z,50.875618
2023-05-06T04:57:38.313Z,50.875534
2023-05-06T04:58:38.349Z,50.875477
2023-05-06T04:59:39.301Z,50.875175
2023-05-06T05:00:38.288Z,50.875278
2023-05-06T05:01:38.403Z,50.875385
2023-05-06T05:02:38.366Z,50.875408
2023-05-06T05:03:38.294Z,50.875313
2023-05-06T05:04:38.276Z,50.875523
2023-05-06T05:05:38.258Z,50.875652
2023-05-06T05:06:38.227Z,50.875671
2023-05-06T05:07:38.220Z,50.875309
2023-05-06T05:08:38.198Z,50.875309
2023-05-06T05:09:38.183Z,50.875584
2023-05-06T05:10:38.168Z,50.875671
2023-05-06T05:11:38.173Z,50.875404
2023-05-06T05:12:38.185Z,50.875530
2023-05-06T05:13:38.138Z,50.875671
2023-05-06T05:14:38.140Z,50.875496
2023-05-06T05:15:38.139Z,50.875381
2023-05-06T05:16:38.175Z,50.875404
2023-05-06T05:17:38.257Z,50.875710
2023-05-06T05:18:38.097Z,50.875710
2023-05-06T05:19:38.108Z,50.875710
2023-05-06T05:20:38.085Z,50.875710
2023-05-06T05:21:38.080Z,50.875710
2023-05-06T05:22:38.072Z,50.875710
2023-05-06T05:23:38.060Z,50.875565
2023-05-06T05:24:38.038Z,50.875374
2023-05-06T05:25:38.067Z,50.875603
2023-05-06T05:26:38.034Z,50.875576
2023-05-06T05:27:38.026Z,50.875519
2023-05-06T05:28:37.996Z,50.875492
2023-05-06T05:29:38.021Z,50.875587
2023-05-06T05:30:38.032Z,50.875511
2023-05-06T05:31:38.077Z,50.875164
2023-05-06T05:32:38.019Z,50.875195
2023-05-06T05:33:38.086Z,50.875336
2023-05-06T05:34:37.955Z,50.875572
2023-05-06T05:35:37.982Z,50.875980
2023-05-06T05:36:37.938Z,50.875427
2023-05-06T05:37:37.911Z,50.875248
2023-05-06T05:38:37.916Z,50.875771
2023-05-06T05:39:37.903Z,50.875771
2023-05-06T05:40:37.894Z,50.875771
2023-05-06T05:41:37.897Z,50.875771
2023-05-06T05:42:37.869Z,50.875771
2023-05-06T05:43:37.887Z,50.875771
2023-05-06T05:44:37.844Z,50.875771
2023-05-06T05:45:37.952Z,50.875771
2023-05-06T05:46:38.943Z,50.875771
2023-05-06T05:47:37.832Z,50.875771
2023-05-06T05:48:37.816Z,50.875771
2023-05-06T05:49:37.804Z,50.875771
2023-05-06T05:50:37.797Z,50.875771
2023-05-06T05:51:37.793Z,50.875771
2023-05-06T05:52:37.895Z,50.875771
2023-05-06T05:53:37.759Z,50.875771
2023-05-06T05:54:37.756Z,50.875771
2023-05-06T05:55:37.777Z,50.875771
2023-05-06T05:56:37.724Z,50.875771
2023-05-06T05:57:37.728Z,50.875771
2023-05-06T05:58:37.734Z,50.875771
2023-05-06T05:59:37.729Z,50.875771
2023-05-06T06:00:37.711Z,50.875771
2023-05-06T06:01:37.683Z,50.875771
2023-05-06T06:02:37.795Z,50.875771
2023-05-06T06:03:37.750Z,50.875771
2023-05-06T06:04:38.479Z,50.875771
2023-05-06T06:05:37.780Z,50.875771
2023-05-06T06:06:37.624Z,50.875771
2023-05-06T06:07:37.626Z,50.875771
2023-05-06T06:08:37.656Z,50.875771
2023-05-06T06:09:37.589Z,50.875771
2023-05-06T06:10:37.574Z,50.875771
2023-05-06T06:11:37.591Z,50.875771
2023-05-06T06:12:37.577Z,50.875771
2023-05-06T06:13:37.568Z,50.875771
2023-05-06T06:14:37.556Z,50.875771
2023-05-06T06:15:37.540Z,50.875771
2023-05-06T06:16:37.576Z,50.875771
2023-05-06T06:17:37.545Z,50.875771
2023-05-06T06:18:37.539Z,50.875771
2023-05-06T06:19:37.509Z,50.875771
2023-05-06T06:20:37.469Z,50.875771
2023-05-06T06:21:37.579Z,50.875771
2023-05-06T06:22:37.469Z,50.875771
2023-05-06T06:23:37.470Z,50.875771
2023-05-06T06:24:37.741Z,50.875771
2023-05-06T06:25:37.442Z,50.875771
2023-05-06T06:26:37.452Z,50.875771
2023-05-06T06:27:37.421Z,50.875771
2023-05-06T06:28:37.442Z,50.875771
2023-05-06T06:29:37.415Z,50.875771
2023-05-06T06:30:37.411Z,50.875771
2023-05-06T06:31:39.722Z,50.875771
2023-05-06T06:32:37.396Z,50.875771
2023-05-06T06:33:37.343Z,50.875771
2023-05-06T06:34:38.351Z,50.875771
2023-05-06T06:35:37.350Z,50.875771
2023-05-06T06:36:37.351Z,50.875771
2023-05-06T06:37:37.381Z,50.875771
2023-05-06T06:38:37.344Z,50.875393
2023-05-06T06:39:37.331Z,50.875423
2023-05-06T06:40:37.289Z,50.875343
2023-05-06T06:41:37.317Z,50.875328
2023-05-06T06:42:37.964Z,50.875359
2023-05-06T06:43:37.235Z,50.875385
2023-05-06T06:44:37.273Z,50.875412
2023-05-06T06:45:37.266Z,50.875423
2023-05-06T06:46:37.213Z,50.875317
2023-05-06T06:47:37.451Z,50.875408
2023-05-06T06:48:37.225Z,50.875359
2023-05-06T06:49:37.196Z,50.875393
2023-05-06T06:50:37.225Z,50.875393
2023-05-06T06:51:37.211Z,50.875317
2023-05-06T06:52:37.195Z,50.875404
2023-05-06T06:53:37.213Z,50.875347
2023-05-06T06:54:37.122Z,50.875351
2023-05-06T06:55:37.141Z,50.875393
2023-05-06T06:56:37.114Z,50.875423
2023-05-06T06:57:37.114Z,50.875397
2023-05-06T06:58:38.074Z,50.875401
2023-05-06T06:59:37.295Z,50.875381
2023-05-06T07:00:38.716Z,50.875370
2023-05-06T07:01:37.130Z,50.875374
2023-05-06T07:02:37.065Z,50.875343
2023-05-06T07:03:37.118Z,50.875416
2023-05-06T07:04:38.182Z,50.875462
2023-05-06T07:05:37.040Z,50.875408
2023-05-06T07:06:37.884Z,50.875427
2023-05-06T07:07:36.998Z,50.875450
2023-05-06T07:08:36.990Z,50.875439
2023-05-06T07:09:40.044Z,50.875446
2023-05-06T07:10:36.957Z,50.875427
2023-05-06T07:11:36.945Z,50.875290
2023-05-06T07:12:36.944Z,50.875313
2023-05-06T07:13:37.074Z,50.875343
2023-05-06T07:14:36.933Z,50.875465
2023-05-06T07:15:36.913Z,50.875450
2023-05-06T07:16:37.936Z,50.875538
2023-05-06T07:17:36.934Z,50.875416
2023-05-06T07:18:37.896Z,50.875366
2023-05-06T07:19:36.925Z,50.875431
2023-05-06T07:20:36.915Z,50.875416
2023-05-06T07:21:36.855Z,50.875378
2023-05-06T07:22:36.843Z,50.875378
2023-05-06T07:23:36.822Z,50.875362
2023-05-06T07:24:36.850Z,50.875416
2023-05-06T07:25:36.834Z,50.875366
2023-05-06T07:26:36.828Z,50.875378
2023-05-06T07:27:36.797Z,50.875397
2023-05-06T07:28:36.783Z,50.875450
2023-05-06T07:29:36.768Z,50.875446
2023-05-06T07:30:36.746Z,50.875439
2023-05-06T07:31:36.823Z,50.875381
2023-05-06T07:32:36.744Z,50.875385
2023-05-06T07:33:36.736Z,50.875408
2023-05-06T07:34:36.833Z,50.875404
2023-05-06T07:35:36.730Z,50.875397
2023-05-06T07:36:38.668Z,50.875393
2023-05-06T07:37:36.692Z,50.875496
2023-05-06T07:38:36.694Z,50.875401
2023-05-06T07:39:36.686Z,50.875416
2023-05-06T07:40:36.669Z,50.875423
2023-05-06T07:41:36.737Z,50.875401
2023-05-06T07:42:36.650Z,50.875515
2023-05-06T07:43:36.730Z,50.875313
2023-05-06T07:44:36.620Z,50.875431
2023-05-06T07:45:36.625Z,50.875572
2023-05-06T07:46:36.684Z,50.876328
2023-05-06T07:47:36.700Z,50.875549
2023-05-06T07:48:36.616Z,50.875423
2023-05-06T07:49:36.565Z,50.875412
2023-05-06T07:50:36.542Z,50.875443
2023-05-06T07:51:36.519Z,50.875443
2023-05-06T07:52:36.572Z,50.875507
2023-05-06T07:53:36.536Z,50.875328
2023-05-06T07:54:36.510Z,50.875389
2023-05-06T07:55:36.510Z,50.875439
2023-05-06T07:56:36.482Z,50.875259
2023-05-06T07:57:36.464Z,50.875404
2023-05-06T07:58:36.459Z,50.875374
2023-05-06T07:59:36.441Z,50.875813
2023-05-06T08:00:36.442Z,50.875580
2023-05-06T08:01:36.422Z,50.875225
2023-05-06T08:02:36.538Z,50.875324
2023-05-06T08:03:36.523Z,50.875320
2023-05-06T08:04:36.411Z,50.875286
2023-05-06T08:05:36.391Z,50.875473
2023-05-06T08:06:37.400Z,50.875324
2023-05-06T08:07:36.383Z,50.875324
2023-05-06T08:08:36.372Z,50.875324
2023-05-06T08:09:36.376Z,50.875324
2023-05-06T08:10:36.375Z,50.875324
2023-05-06T08:11:36.353Z,50.875324
2023-05-06T08:12:36.392Z,50.875324
2023-05-06T08:13:36.369Z,50.875324
2023-05-06T08:14:36.284Z,50.875324
2023-05-06T08:15:36.280Z,50.875324
2023-05-06T08:16:36.295Z,50.875324
2023-05-06T08:17:36.294Z,50.875324
2023-05-06T08:18:36.288Z,50.875324
2023-05-06T08:19:36.253Z,50.875324
2023-05-06T08:20:36.268Z,50.875324
2023-05-06T08:21:36.280Z,50.875324
2023-05-06T08:22:36.254Z,50.875324
2023-05-06T08:23:36.218Z,50.875324
2023-05-06T08:24:36.259Z,50.875324
2023-05-06T08:25:36.238Z,50.875324
2023-05-06T08:26:36.224Z,50.875324
2023-05-06T08:27:36.197Z,50.875324
2023-05-06T08:28:36.198Z,50.875324
2023-05-06T08:29:36.252Z,50.875324
2023-05-06T08:30:36.204Z,50.875324
2023-05-06T08:31:36.226Z,50.875324
2023-05-06T08:32:36.185Z,50.875324
2023-05-06T08:33:36.160Z,50.875324
2023-05-06T08:34:36.131Z,50.875324
2023-05-06T08:35:36.119Z,50.875324
2023-05-06T08:36:36.112Z,50.875324
2023-05-06T08:37:36.092Z,50.875324
2023-05-06T08:38:36.097Z,50.875324
2023-05-06T08:39:36.082Z,50.875324
2023-05-06T08:40:36.107Z,50.875324
2023-05-06T08:41:36.066Z,50.875324
2023-05-06T08:42:36.042Z,50.875324
2023-05-06T08:43:36.041Z,50.875324
2023-05-06T08:44:36.047Z,50.875324
2023-05-06T08:45:36.181Z,50.875324
2023-05-06T08:46:36.025Z,50.875004
2023-05-06T08:47:36.023Z,50.875095
2023-05-06T08:48:35.980Z,50.875179
2023-05-06T08:49:35.959Z,50.875187
2023-05-06T08:50:35.948Z,50.875153
2023-05-06T08:51:35.918Z,50.875042
2023-05-06T08:52:35.951Z,50.875259
2023-05-06T08:53:35.896Z,50.875645
2023-05-06T08:54:36.910Z,50.875648
2023-05-06T08:55:35.905Z,50.875610
2023-05-06T08:56:35.882Z,50.875473
2023-05-06T08:57:35.866Z,50.875473
2023-05-06T08:58:35.878Z,50.875473
2023-05-06T08:59:35.859Z,50.875473
2023-05-06T09:00:35.836Z,50.875473
2023-05-06T09:01:35.940Z,50.875763
2023-05-06T09:02:35.851Z,50.875393
2023-05-06T09:03:35.886Z,50.875385
2023-05-06T09:04:35.850Z,50.875267
2023-05-06T09:05:35.828Z,50.875267
2023-05-06T09:06:35.821Z,50.875446
2023-05-06T09:07:35.826Z,50.875679
2023-05-06T09:08:35.838Z,50.875614
2023-05-06T09:09:35.812Z,50.875710
2023-05-06T09:10:35.784Z,50.875484
2023-05-06T09:11:35.756Z,50.875656
2023-05-06T09:12:35.811Z,50.875668
2023-05-06T09:13:35.774Z,50.875683
2023-05-06T09:14:35.767Z,50.875641
2023-05-06T09:15:35.772Z,50.875610
2023-05-06T09:16:35.797Z,50.875469
2023-05-06T09:17:35.801Z,50.875465
2023-05-06T09:18:35.674Z,50.875465
2023-05-06T09:19:35.662Z,50.875465
2023-05-06T09:20:35.678Z,50.875465
2023-05-06T09:21:35.662Z,50.875465
2023-05-06T09:22:35.656Z,50.875465
2023-05-06T09:23:35.636Z,50.875465
2023-05-06T09:24:35.643Z,50.875465
2023-05-06T09:25:35.635Z,50.875465
2023-05-06T09:26:35.608Z,50.875465
2023-05-06T09:27:36.601Z,50.875465
2023-05-06T09:28:35.562Z,50.875465
2023-05-06T09:29:35.545Z,50.875465
2023-05-06T09:30:35.555Z,50.875465
2023-05-06T09:31:35.571Z,50.875465
2023-05-06T09:32:37.490Z,50.875465
2023-05-06T09:33:35.620Z,50.875465
2023-05-06T09:34:35.490Z,50.875465
2023-05-06T09:35:35.494Z,50.875465
2023-05-06T09:36:35.488Z,50.875465
2023-05-06T09:37:35.474Z,50.875465
2023-05-06T09:38:35.459Z,50.875465
2023-05-06T09:39:35.481Z,50.875465
2023-05-06T09:40:35.437Z,50.875465
2023-05-06T09:41:35.453Z,50.875465
2023-05-06T09:42:35.418Z,50.875465
2023-05-06T09:43:35.423Z,50.875465
2023-05-06T09:44:35.420Z,50.875465
2023-05-06T09:45:35.419Z,50.875465
2023-05-06T09:46:35.448Z,50.875465
2023-05-06T09:47:35.556Z,50.875465
2023-05-06T09:48:35.428Z,50.875664
2023-05-06T09:49:35.476Z,50.875534
2023-05-06T09:50:35.381Z,50.875355
2023-05-06T09:51:35.371Z,50.875301
2023-05-06T09:52:35.323Z,50.875523
2023-05-06T09:53:35.313Z,50.875252
2023-05-06T09:54:35.299Z,50.875458
2023-05-06T09:55:35.309Z,50.875427
2023-05-06T09:56:35.304Z,50.875496
2023-05-06T09:57:35.272Z,50.875420
2023-05-06T09:58:35.266Z,50.875557
2023-05-06T09:59:35.251Z,50.875454
2023-05-06T10:00:35.260Z,50.875393
2023-05-06T10:01:37.181Z,50.875416
2023-05-06T10:02:36.376Z,50.875347
2023-05-06T10:03:35.349Z,50.875427
2023-05-06T10:04:35.443Z,50.875641
2023-05-06T10:05:35.291Z,50.875626
2023-05-06T10:06:35.204Z,50.875542
2023-05-06T10:07:35.195Z,50.875645
2023-05-06T10:08:35.195Z,50.875347
2023-05-06T10:09:35.208Z,50.875404
2023-05-06T10:10:35.189Z,50.875389
2023-05-06T10:11:35.163Z,50.875347
2023-05-06T10:12:35.154Z,50.875107
2023-05-06T10:13:35.114Z,50.875267
2023-05-06T10:14:35.140Z,50.875599
2023-05-06T10:15:35.096Z,50.875557
2023-05-06T10:16:35.138Z,50.875401
2023-05-06T10:17:35.121Z,50.875305
2023-05-06T10:18:35.062Z,50.875401
2023-05-06T10:19:35.072Z,50.875397
2023-05-06T10:20:35.154Z,50.875462
2023-05-06T10:21:35.032Z,50.875664
2023-05-06T10:22:35.080Z,50.875523
2023-05-06T10:23:35.065Z,50.875538
2023-05-06T10:24:35.040Z,50.875443
2023-05-06T10:25:35.022Z,50.875240
2023-05-06T10:26:35.003Z,50.875458
2023-05-06T10:27:35.012Z,50.875408
2023-05-06T10:28:35.024Z,50.875458
2023-05-06T10:29:34.994Z,50.875435
2023-05-06T10:30:34.969Z,50.875435
2023-05-06T10:31:35.029Z,50.875519
2023-05-06T10:32:35.018Z,50.875378
2023-05-06T10:33:35.949Z,50.875290
2023-05-06T10:34:34.931Z,50.875362
2023-05-06T10:35:34.921Z,50.875721
2023-05-06T10:36:34.918Z,50.875607
2023-05-06T10:37:35.035Z,50.875534
2023-05-06T10:38:34.914Z,50.875393
2023-05-06T10:39:34.855Z,50.875618
2023-05-06T10:40:34.849Z,50.875607
2023-05-06T10:41:34.845Z,50.875317
2023-05-06T10:42:34.855Z,50.875252
2023-05-06T10:43:34.866Z,50.875317
2023-05-06T10:44:34.820Z,50.875385
2023-05-06T10:45:34.808Z,50.875462
2023-05-06T10:46:34.797Z,50.875370
2023-05-06T10:47:34.883Z,50.875301
2023-05-06T10:48:34.788Z,50.875259
2023-05-06T10:49:34.772Z,50.875275
2023-05-06T10:50:34.758Z,50.875229
2023-05-06T10:51:34.763Z,50.875233
2023-05-06T10:52:34.741Z,50.875244
2023-05-06T10:53:34.786Z,50.875500
2023-05-06T10:54:34.715Z,50.875210
2023-05-06T10:55:34.717Z,50.875282
2023-05-06T10:56:34.705Z,50.875301
2023-05-06T10:57:34.729Z,50.875351
2023-05-06T10:58:34.698Z,50.875324
2023-05-06T10:59:34.685Z,50.875301
2023-05-06T11:00:34.689Z,50.875282
2023-05-06T11:01:34.735Z,50.875572
2023-05-06T11:02:34.780Z,50.875427
2023-05-06T11:03:34.729Z,50.875385
2023-05-06T11:04:34.638Z,50.875385
2023-05-06T11:05:34.623Z,50.875374
2023-05-06T11:06:34.628Z,50.875328
2023-05-06T11:07:34.584Z,50.875301
2023-05-06T11:08:34.588Z,50.875343
2023-05-06T11:09:34.759Z,50.875347
2023-05-06T11:10:34.575Z,50.875355
2023-05-06T11:11:34.553Z,50.875408
2023-05-06T11:12:34.569Z,50.875469
2023-05-06T11:13:34.546Z,50.875610
2023-05-06T11:14:34.543Z,50.875507
2023-05-06T11:15:34.527Z,50.875565
2023-05-06T11:16:34.834Z,50.875378
2023-05-06T11:17:34.541Z,50.875443
2023-05-06T11:18:34.495Z,50.875443
2023-05-06T11:19:34.472Z,50.875347
2023-05-06T11:20:34.476Z,50.875343
2023-05-06T11:21:34.458Z,50.875317
2023-05-06T11:22:34.445Z,50.875313
2023-05-06T11:23:34.439Z,50.875336
2023-05-06T11:24:34.422Z,50.875305
2023-05-06T11:25:34.495Z,50.875271
2023-05-06T11:26:34.410Z,50.875263
2023-05-06T11:27:34.412Z,50.875309
2023-05-06T11:28:34.400Z,50.875298
2023-05-06T11:29:34.419Z,50.875324
2023-05-06T11:30:34.400Z,50.875374
2023-05-06T11:31:34.497Z,50.875378
2023-05-06T11:32:34.376Z,50.875484
2023-05-06T11:33:34.370Z,50.875561
2023-05-06T11:34:34.372Z,50.875332
2023-05-06T11:35:34.327Z,50.874889
2023-05-06T11:36:34.306Z,50.875427
2023-05-06T11:37:34.323Z,50.875725
2023-05-06T11:38:34.283Z,50.876328
2023-05-06T11:39:39.887Z,50.876091
2023-05-06T11:40:36.267Z,50.876427
2023-05-06T11:41:34.322Z,50.876389
2023-05-06T11:42:34.262Z,50.876740
2023-05-06T11:43:34.233Z,50.876499
2023-05-06T11:44:34.242Z,50.876282
2023-05-06T11:45:34.218Z,50.875584
2023-05-06T11:46:34.229Z,50.875828
2023-05-06T11:47:34.225Z,50.875870
2023-05-06T11:48:34.196Z,50.875847
2023-05-06T11:49:36.698Z,50.875771
2023-05-06T11:50:34.165Z,50.876152